Time;durP1;ratioP1;P1;durP2;ratioP2;P2;SDS_P1;SDS_P2;PMS_P1;PMS_P2;Temp;Humidity;BMP_temperature;BMP_pressure;BME280_temperature;BME280_humidity;BME280_pressure;Samples;Min_cycle;Max_cycle;Signal;HPM_P1;HPM_P2
2021/01/21 00:00:45;;;;;;;49.00;20.67;;;-5.50;65.50;;;;;;5069592;28;20039;-71
2021/01/21 00:03:11;;;;;;;47.78;20.48;;;-5.40;65.40;;;;;;5062713;28;20421;-71
2021/01/21 00:05:36;;;;;;;46.78;19.65;;;-5.40;65.40;;;;;;5087246;28;20024;-71
2021/01/21 00:08:02;;;;;;;55.92;22.60;;;-5.40;65.70;;;;;;5093952;28;20069;-70
2021/01/21 00:10:28;;;;;;;51.72;22.52;;;-5.40;65.40;;;;;;5075330;28;20085;-69
2021/01/21 00:12:54;;;;;;;59.45;24.05;;;-5.40;65.40;;;;;;5090016;28;20032;-70
2021/01/21 00:15:19;;;;;;;50.22;20.63;;;-5.40;65.70;;;;;;5079153;28;20417;-70
2021/01/21 00:17:45;;;;;;;55.33;22.00;;;-5.30;65.80;;;;;;5089486;28;20466;-70
2021/01/21 00:20:12;;;;;;;57.45;23.52;;;-5.30;65.90;;;;;;5094815;28;20118;-71
2021/01/21 00:22:38;;;;;;;50.08;21.40;;;-5.30;65.90;;;;;;5075335;28;20034;-70
2021/01/21 00:25:05;;;;;;;55.05;22.98;;;-5.30;65.70;;;;;;5074747;28;20431;-71
2021/01/21 00:27:31;;;;;;;51.60;22.10;;;-5.30;65.80;;;;;;5064166;28;20035;-71
2021/01/21 00:29:57;;;;;;;49.38;19.52;;;-5.30;65.90;;;;;;5060164;28;20536;-71
2021/01/21 00:32:23;;;;;;;47.60;20.80;;;-5.30;66.10;;;;;;5086134;28;20036;-70
2021/01/21 00:34:48;;;;;;;50.15;20.80;;;-5.20;66.20;;;;;;5059418;28;20111;-69
2021/01/21 00:37:14;;;;;;;49.83;21.42;;;-5.20;66.10;;;;;;5070592;28;20020;-70
2021/01/21 00:39:40;;;;;;;50.42;21.67;;;-5.20;66.20;;;;;;5064570;28;20127;-69
2021/01/21 00:42:06;;;;;;;46.95;17.80;;;-5.20;66.50;;;;;;5068377;28;20024;-70
2021/01/21 00:44:31;;;;;;;42.65;19.35;;;-5.20;66.60;;;;;;5074250;28;20028;-70
2021/01/21 00:46:57;;;;;;;56.97;22.33;;;-5.10;66.90;;;;;;5083205;28;20478;-70
2021/01/21 00:49:23;;;;;;;41.30;17.88;;;-5.10;66.90;;;;;;5074196;28;20035;-70
2021/01/21 00:51:49;;;;;;;53.83;21.30;;;-5.10;66.90;;;;;;5085580;28;20035;-70
2021/01/21 00:54:14;;;;;;;48.75;19.45;;;-5.10;67.00;;;;;;5066220;28;20117;-70
2021/01/21 00:56:41;;;;;;;44.22;21.08;;;-5.00;67.10;;;;;;5090924;28;20027;-70
2021/01/21 00:59:07;;;;;;;48.40;20.02;;;-5.00;67.10;;;;;;5066184;28;20040;-70
2021/01/21 01:01:33;;;;;;;34.38;15.15;;;-5.00;67.20;;;;;;5067402;28;20420;-70
2021/01/21 01:03:59;;;;;;;43.80;19.75;;;-5.00;67.20;;;;;;5068994;28;20028;-70
2021/01/21 01:06:24;;;;;;;48.28;19.98;;;-5.00;67.10;;;;;;5080545;28;20028;-70
2021/01/21 01:08:50;;;;;;;42.90;17.23;;;-5.10;67.10;;;;;;5069768;28;20131;-69
2021/01/21 01:11:17;;;;;;;39.92;15.90;;;-5.00;67.40;;;;;;5084193;28;20026;-69
2021/01/21 01:13:42;;;;;;;39.90;20.05;;;-5.00;67.40;;;;;;5063650;28;20397;-70
2021/01/21 01:16:10;;;;;;;44.58;20.88;;;-5.00;67.50;;;;;;5068202;28;20025;-71
2021/01/21 01:18:35;;;;;;;46.33;19.95;;;-4.90;67.40;;;;;;5060671;28;20056;-70
2021/01/21 01:21:01;;;;;;;44.50;19.30;;;-4.90;67.60;;;;;;5089741;28;20056;-70
2021/01/21 01:23:27;;;;;;;47.83;19.55;;;-4.90;67.50;;;;;;5067884;28;20097;-72
2021/01/21 01:25:53;;;;;;;30.45;13.43;;;-4.90;67.60;;;;;;5086482;28;20032;-69
2021/01/21 01:28:19;;;;;;;41.22;18.10;;;-4.80;67.90;;;;;;5068408;28;20059;-70
2021/01/21 01:30:45;;;;;;;36.92;17.45;;;-4.80;67.70;;;;;;5088424;28;20027;-70
2021/01/21 01:33:11;;;;;;;32.50;13.52;;;-4.80;67.60;;;;;;5089315;28;20497;-70
2021/01/21 01:35:36;;;;;;;29.65;12.73;;;-4.80;67.90;;;;;;5092971;28;20099;-71
2021/01/21 01:38:02;;;;;;;23.10;11.32;;;-4.80;67.80;;;;;;5065389;28;20032;-71
2021/01/21 01:40:28;;;;;;;30.92;11.52;;;-4.80;68.00;;;;;;5082563;28;20027;-70
2021/01/21 01:42:55;;;;;;;20.95;11.02;;;-4.80;68.10;;;;;;5085771;28;20402;-70
2021/01/21 01:45:21;;;;;;;37.20;17.55;;;-4.80;68.00;;;;;;5070316;28;20076;-69
2021/01/21 01:47:47;;;;;;;35.17;18.17;;;-4.80;68.10;;;;;;5089219;28;20036;-70
2021/01/21 01:50:15;;;;;;;18.98;9.70;;;-4.80;68.20;;;;;;5056123;28;20181;-70
2021/01/21 01:52:41;;;;;;;36.00;16.80;;;-4.80;68.20;;;;;;5065653;28;20031;-70
2021/01/21 01:55:16;;;;;;;36.72;16.98;;;-4.80;68.20;;;;;;5085830;28;20042;-71
2021/01/21 01:57:43;;;;;;;29.55;12.75;;;-4.80;68.10;;;;;;5071738;28;20491;-70
2021/01/21 02:00:09;;;;;;;38.40;16.80;;;-4.80;68.10;;;;;;5062296;28;20024;-70
2021/01/21 02:02:35;;;;;;;35.00;17.40;;;-4.80;68.10;;;;;;5090662;28;20023;-70
2021/01/21 02:05:02;;;;;;;37.90;17.60;;;-4.70;68.20;;;;;;5091822;28;20024;-70
2021/01/21 02:07:28;;;;;;;24.38;11.98;;;-4.70;68.10;;;;;;5073078;28;20477;-70
2021/01/21 02:09:56;;;;;;;26.55;12.05;;;-4.70;68.10;;;;;;5078276;28;20147;-70
2021/01/21 02:12:40;;;;;;;21.30;11.23;;;-4.70;68.20;;;;;;5085730;28;20043;-70
2021/01/21 02:15:23;;;;;;;21.73;10.38;;;-4.70;68.10;;;;;;5083148;28;20016;-71
2021/01/21 02:18:14;;;;;;;25.85;12.43;;;-4.70;68.20;;;;;;5082854;28;20166;-70
2021/01/21 02:20:48;;;;;;;36.35;16.60;;;-4.70;68.20;;;;;;5072170;28;20364;-69
2021/01/21 02:23:35;;;;;;;34.30;15.80;;;-4.70;68.10;;;;;;5071145;28;20024;-69
2021/01/21 02:26:09;;;;;;;32.80;16.75;;;-4.70;68.10;;;;;;5059155;28;20052;-70
2021/01/21 02:29:08;;;;;;;36.17;17.20;;;-4.70;68.10;;;;;;5084598;28;20044;-70
2021/01/21 02:32:01;;;;;;;35.60;15.77;;;-4.70;68.00;;;;;;5069344;28;20055;-67
2021/01/21 02:34:42;;;;;;;31.42;13.63;;;-4.70;68.00;;;;;;5060994;28;20470;-67
2021/01/21 02:37:36;;;;;;;34.90;16.33;;;-4.70;68.30;;;;;;5087811;28;20024;-68
2021/01/21 02:40:04;;;;;;;34.58;16.42;;;-4.70;68.00;;;;;;5058537;28;20024;-67
2021/01/21 02:42:43;;;;;;;39.90;18.88;;;-4.70;68.00;;;;;;5077406;28;20029;-68
2021/01/21 02:45:09;;;;;;;26.40;13.77;;;-4.70;67.90;;;;;;5084317;28;20020;-67
2021/01/21 02:47:35;;;;;;;31.90;16.35;;;-4.80;67.90;;;;;;5069269;28;20055;-67
2021/01/21 02:50:01;;;;;;;32.80;15.82;;;-4.70;68.10;;;;;;5072803;28;20040;-68
2021/01/21 02:52:46;;;;;;;30.83;14.30;;;-4.80;67.90;;;;;;5090322;28;20043;-68
2021/01/21 02:55:18;;;;;;;23.10;11.68;;;-4.80;68.10;;;;;;5057464;28;20047;-68
2021/01/21 02:57:55;;;;;;;30.17;14.38;;;-4.70;68.20;;;;;;5068722;28;20024;-67
2021/01/21 03:00:22;;;;;;;34.53;13.43;;;-4.70;68.30;;;;;;5064119;28;20386;-67
2021/01/21 03:02:54;;;;;;;37.13;17.02;;;-4.70;68.30;;;;;;5068322;28;20036;-67
2021/01/21 03:05:21;;;;;;;36.72;16.90;;;-4.70;68.50;;;;;;5076982;28;20115;-66
2021/01/21 03:07:48;;;;;;;32.20;16.58;;;-4.60;68.40;;;;;;5079530;28;20052;-66
2021/01/21 03:10:18;;;;;;;22.95;11.18;;;-4.60;68.50;;;;;;5066618;28;20393;-67
2021/01/21 03:12:50;;;;;;;35.30;15.40;;;-4.60;69.30;;;;;;5069892;28;20081;-67
2021/01/21 03:15:15;;;;;;;30.25;15.68;;;-4.60;68.70;;;;;;5093807;28;20103;-68
2021/01/21 03:17:41;;;;;;;37.95;19.73;;;-4.50;68.60;;;;;;5096715;28;20169;-68
2021/01/21 03:20:07;;;;;;;33.83;15.70;;;-4.50;68.90;;;;;;5087100;28;20028;-68
2021/01/21 03:22:33;;;;;;;28.95;14.80;;;-4.50;68.90;;;;;;5085695;28;20028;-68
2021/01/21 03:24:59;;;;;;;34.30;15.88;;;-4.50;69.00;;;;;;5069186;28;20031;-68
2021/01/21 03:27:24;;;;;;;22.00;10.35;;;-4.40;69.10;;;;;;5088338;28;20544;-68
2021/01/21 03:29:50;;;;;;;28.90;14.50;;;-4.40;69.10;;;;;;5069125;28;20063;-68
2021/01/21 03:32:16;;;;;;;27.00;11.77;;;-4.40;68.90;;;;;;5074912;28;20107;-69
2021/01/21 03:34:41;;;;;;;31.98;13.82;;;-4.40;69.10;;;;;;5066980;28;20494;-68
2021/01/21 03:37:07;;;;;;;40.17;18.83;;;-4.30;69.00;;;;;;5065197;28;20035;-68
2021/01/21 03:39:33;;;;;;;38.03;17.67;;;-4.30;69.10;;;;;;5093813;28;20035;-69
2021/01/21 03:41:58;;;;;;;26.02;12.15;;;-4.30;69.10;;;;;;5088302;28;20107;-67
2021/01/21 03:44:24;;;;;;;29.08;13.38;;;-4.30;69.30;;;;;;5091701;28;20024;-68
2021/01/21 03:46:50;;;;;;;37.25;16.35;;;-4.20;69.40;;;;;;5073042;28;20094;-68
2021/01/21 03:49:16;;;;;;;38.15;17.02;;;-4.20;69.70;;;;;;5094729;28;20489;-68
2021/01/21 03:51:41;;;;;;;28.48;14.18;;;-4.20;69.70;;;;;;5085880;28;20426;-69
2021/01/21 03:54:07;;;;;;;38.22;15.98;;;-4.20;70.10;;;;;;5089958;28;20459;-68
2021/01/21 03:56:33;;;;;;;37.35;17.05;;;-4.10;70.40;;;;;;5074514;28;20028;-68
2021/01/21 03:58:58;;;;;;;42.65;18.10;;;-4.10;70.50;;;;;;5086465;28;20028;-68
2021/01/21 04:01:24;;;;;;;33.15;15.10;;;-4.10;70.90;;;;;;5072489;28;20020;-69
2021/01/21 04:03:50;;;;;;;41.00;17.83;;;-4.10;70.80;;;;;;5071031;28;20429;-70
2021/01/21 04:06:16;;;;;;;35.75;14.35;;;-4.10;71.00;;;;;;5071804;28;20020;-68
2021/01/21 04:08:42;;;;;;;35.08;15.20;;;-4.10;71.00;;;;;;5082252;28;20059;-68
2021/01/21 04:11:08;;;;;;;44.33;20.02;;;-4.10;71.50;;;;;;5059576;28;20072;-68
2021/01/21 04:13:34;;;;;;;27.90;14.65;;;-4.00;71.90;;;;;;5067673;28;20035;-68
2021/01/21 04:16:00;;;;;;;36.42;14.32;;;-4.00;71.80;;;;;;5067322;28;20032;-68
2021/01/21 04:18:25;;;;;;;50.25;22.75;;;-3.90;72.10;;;;;;5075188;28;20051;-68
2021/01/21 04:20:51;;;;;;;38.58;16.70;;;-3.90;72.20;;;;;;5063287;28;20040;-68
2021/01/21 04:23:17;;;;;;;20.83;11.57;;;-3.90;72.40;;;;;;5063118;28;20028;-69
2021/01/21 04:25:42;;;;;;;46.38;21.05;;;-3.90;72.30;;;;;;5069602;28;20028;-69
2021/01/21 04:28:08;;;;;;;48.55;20.13;;;-3.90;72.40;;;;;;5062786;28;20029;-69
2021/01/21 04:30:34;;;;;;;31.08;14.65;;;-3.90;72.60;;;;;;5063545;28;20059;-68
2021/01/21 04:33:00;;;;;;;37.83;18.23;;;-3.90;72.70;;;;;;5068278;28;20024;-69
2021/01/21 04:35:25;;;;;;;28.90;12.65;;;-3.90;73.00;;;;;;5075946;28;20095;-68
2021/01/21 04:37:53;;;;;;;40.15;15.50;;;-3.90;73.10;;;;;;5065971;28;20035;-68
2021/01/21 04:40:19;;;;;;;32.53;13.98;;;-3.90;73.20;;;;;;5068065;28;20031;-69
2021/01/21 04:42:45;;;;;;;41.85;19.88;;;-3.80;73.10;;;;;;5065199;28;20035;-70
2021/01/21 04:45:11;;;;;;;41.05;18.52;;;-3.80;73.40;;;;;;5073111;28;20025;-69
2021/01/21 04:47:37;;;;;;;30.63;15.95;;;-3.80;73.50;;;;;;5076392;28;20394;-69
2021/01/21 04:50:05;;;;;;;41.53;18.55;;;-3.80;73.80;;;;;;5067928;28;20056;-69
2021/01/21 04:52:34;;;;;;;40.33;17.35;;;-3.80;74.10;;;;;;5064774;28;20024;-70
2021/01/21 04:55:06;;;;;;;25.70;11.45;;;-3.80;74.30;;;;;;5066115;28;20026;-68
2021/01/21 04:57:47;;;;;;;28.17;13.50;;;-3.70;74.50;;;;;;5082722;28;20048;-69
2021/01/21 05:00:13;;;;;;;29.73;14.30;;;-3.70;74.60;;;;;;5084450;28;20024;-69
2021/01/21 05:02:40;;;;;;;28.27;14.27;;;-3.70;75.00;;;;;;5068412;28;20050;-68
2021/01/21 05:05:10;;;;;;;30.88;15.65;;;-3.70;75.20;;;;;;5070690;28;20034;-69
2021/01/21 05:07:37;;;;;;;27.50;13.82;;;-3.70;75.40;;;;;;5085874;28;20020;-70
2021/01/21 05:10:04;;;;;;;39.70;17.15;;;-3.70;75.40;;;;;;5087897;28;20101;-69
2021/01/21 05:12:30;;;;;;;38.08;17.52;;;-3.60;75.60;;;;;;5092142;28;20020;-69
2021/01/21 05:14:56;;;;;;;45.22;21.10;;;-3.60;76.00;;;;;;5089629;28;20028;-69
2021/01/21 05:17:21;;;;;;;24.95;12.52;;;-3.60;76.00;;;;;;5089714;28;20029;-69
2021/01/21 05:19:51;;;;;;;29.13;12.70;;;-3.60;76.00;;;;;;5092342;28;20032;-69
2021/01/21 05:22:17;;;;;;;48.08;22.40;;;-3.60;76.20;;;;;;5064906;28;20024;-69
2021/01/21 05:24:45;;;;;;;27.27;14.57;;;-3.60;76.60;;;;;;5080709;28;20438;-69
2021/01/21 05:27:11;;;;;;;27.02;12.82;;;-3.60;76.60;;;;;;5061385;28;20024;-69
2021/01/21 05:29:37;;;;;;;32.17;14.40;;;-3.60;76.60;;;;;;5082967;28;20035;-69
2021/01/21 05:32:06;;;;;;;33.60;14.15;;;-3.60;76.60;;;;;;5084673;28;20466;-70
2021/01/21 05:34:33;;;;;;;34.53;16.50;;;-3.50;76.90;;;;;;5067226;28;20028;-70
2021/01/21 05:37:00;;;;;;;27.23;13.13;;;-3.50;76.80;;;;;;5071857;28;20028;-68
2021/01/21 05:39:34;;;;;;;31.17;16.35;;;-3.50;76.90;;;;;;5062451;28;20031;-69
2021/01/21 05:42:00;;;;;;;38.45;16.63;;;-3.60;77.10;;;;;;5061777;28;20108;-70
2021/01/21 05:44:26;;;;;;;32.65;13.63;;;-3.60;77.20;;;;;;5066189;28;20107;-68
2021/01/21 05:46:52;;;;;;;28.88;13.95;;;-3.60;77.30;;;;;;5071356;28;20044;-68
2021/01/21 05:49:18;;;;;;;26.00;12.57;;;-3.60;77.20;;;;;;5092768;28;20150;-68
2021/01/21 05:51:45;;;;;;;24.05;12.57;;;-3.50;77.40;;;;;;5068958;28;20097;-68
2021/01/21 05:54:12;;;;;;;44.28;19.60;;;-3.50;77.40;;;;;;5091131;28;20028;-68
2021/01/21 05:56:38;;;;;;;35.20;15.35;;;-3.50;77.40;;;;;;5071050;28;20102;-70
2021/01/21 05:59:04;;;;;;;34.75;14.18;;;-3.40;77.60;;;;;;5071025;28;20478;-72
2021/01/21 06:01:32;;;;;;;32.20;13.98;;;-3.40;77.60;;;;;;5066040;28;20020;-68
2021/01/21 06:03:57;;;;;;;40.60;18.83;;;-3.40;77.60;;;;;;5085291;28;20421;-67
2021/01/21 06:06:27;;;;;;;39.17;19.15;;;-3.40;77.50;;;;;;5074345;28;20057;-68
2021/01/21 06:08:53;;;;;;;36.35;16.40;;;-3.40;77.60;;;;;;5069768;28;20052;-68
2021/01/21 06:11:22;;;;;;;35.88;18.55;;;-3.30;77.60;;;;;;5087165;28;20367;-69
2021/01/21 06:13:48;;;;;;;41.47;19.88;;;-3.30;77.60;;;;;;5073829;28;20434;-69
2021/01/21 06:16:15;;;;;;;45.05;20.27;;;-3.30;77.60;;;;;;5072063;28;20054;-69
2021/01/21 06:18:41;;;;;;;46.22;19.67;;;-3.30;77.70;;;;;;5069050;28;20085;-71
2021/01/21 06:21:09;;;;;;;35.20;17.13;;;-3.20;77.90;;;;;;5083515;28;20031;-68
2021/01/21 06:23:37;;;;;;;30.40;13.90;;;-3.20;77.90;;;;;;5059558;28;20028;-68
2021/01/21 06:26:04;;;;;;;23.30;12.73;;;-3.10;78.00;;;;;;5069367;28;20114;-72
2021/01/21 06:28:31;;;;;;;36.22;16.88;;;-3.10;78.20;;;;;;5087833;28;20481;-70
2021/01/21 06:30:59;;;;;;;42.60;18.85;;;-3.00;78.40;;;;;;5085318;28;20047;-71
2021/01/21 06:33:35;;;;;;;39.65;18.08;;;-3.00;78.50;;;;;;5084752;28;20028;-72
2021/01/21 06:36:07;;;;;;;30.02;14.27;;;-2.90;78.60;;;;;;5064736;28;20119;-69
2021/01/21 06:38:39;;;;;;;21.88;11.32;;;-2.90;78.70;;;;;;5079273;28;20409;-68
2021/01/21 06:41:16;;;;;;;26.25;12.40;;;-2.90;78.90;;;;;;5090891;28;20168;-68
2021/01/21 06:43:42;;;;;;;34.85;15.88;;;-2.80;78.90;;;;;;5091624;28;20099;-70
2021/01/21 06:46:12;;;;;;;18.52;10.10;;;-2.80;79.10;;;;;;5068924;28;20052;-71
2021/01/21 06:48:37;;;;;;;32.58;16.13;;;-2.80;79.20;;;;;;5078571;28;20077;-72
2021/01/21 06:51:09;;;;;;;31.92;15.52;;;-2.80;79.40;;;;;;5096768;28;20020;-73
2021/01/21 06:53:41;;;;;;;36.35;17.27;;;-2.70;79.60;;;;;;5096346;28;20470;-72
2021/01/21 06:56:07;;;;;;;36.42;17.08;;;-2.70;79.60;;;;;;5070955;28;20024;-70
2021/01/21 06:58:49;;;;;;;33.63;15.35;;;-2.60;79.80;;;;;;5084164;28;20019;-70
2021/01/21 07:01:30;;;;;;;33.83;15.30;;;-2.50;80.10;;;;;;5077463;28;20028;-72
2021/01/21 07:04:25;;;;;;;24.60;12.15;;;-2.50;80.00;;;;;;5067813;28;20032;-71
2021/01/21 07:06:53;;;;;;;26.75;12.43;;;-2.50;80.00;;;;;;5092695;28;20020;-70
2021/01/21 07:09:25;;;;;;;35.90;18.75;;;-2.50;80.10;;;;;;5094150;28;20093;-70
2021/01/21 07:11:56;;;;;;;39.45;19.25;;;-2.40;80.20;;;;;;5094142;28;20104;-71
2021/01/21 07:14:31;;;;;;;39.58;18.63;;;-2.40;80.30;;;;;;5094481;28;20038;-71
2021/01/21 07:17:00;;;;;;;24.00;11.43;;;-2.40;80.40;;;;;;5095495;28;20416;-70
2021/01/21 07:19:44;;;;;;;21.90;11.65;;;-2.40;80.50;;;;;;5096562;28;20024;-69
2021/01/21 07:22:13;;;;;;;40.72;18.48;;;-2.40;80.90;;;;;;5093194;28;20522;-69
2021/01/21 07:24:55;;;;;;;48.78;20.33;;;-2.40;81.20;;;;;;5096407;28;20081;-69
2021/01/21 07:27:24;;;;;;;31.83;14.88;;;-2.30;81.40;;;;;;5096250;28;20422;-69
2021/01/21 07:29:50;;;;;;;41.00;16.73;;;-2.20;81.60;;;;;;5095929;28;20032;-71
2021/01/21 07:32:26;;;;;;;38.38;17.98;;;-2.20;81.30;;;;;;5096094;28;20016;-69
2021/01/21 07:34:51;;;;;;;46.22;21.90;;;-2.10;81.50;;;;;;5096187;28;20447;-70
2021/01/21 07:37:22;;;;;;;37.35;15.80;;;-2.10;81.20;;;;;;5078007;28;20123;-69
2021/01/21 07:39:56;;;;;;;37.75;15.77;;;-2.00;81.50;;;;;;5096006;28;20024;-70
2021/01/21 07:42:23;;;;;;;37.45;16.30;;;-2.00;81.70;;;;;;5096102;28;20020;-70
2021/01/21 07:45:00;;;;;;;26.48;12.30;;;-1.90;81.60;;;;;;5096010;28;20020;-70
2021/01/21 07:47:38;;;;;;;33.55;14.68;;;-1.80;81.60;;;;;;5061362;28;20049;-70
2021/01/21 07:50:22;;;;;;;31.00;13.73;;;-1.80;81.80;;;;;;5074637;28;20044;-70
2021/01/21 07:52:53;;;;;;;26.85;11.52;;;-1.70;81.90;;;;;;5075460;28;20031;-70
2021/01/21 07:55:46;;;;;;;20.65;11.57;;;-1.70;82.00;;;;;;5075837;28;20020;-71
2021/01/21 07:58:18;;;;;;;31.92;15.68;;;-1.60;81.90;;;;;;5071959;28;20060;-69
2021/01/21 08:00:45;;;;;;;30.05;14.40;;;-1.60;82.00;;;;;;5057932;28;20029;-69
2021/01/21 08:03:12;;;;;;;19.25;10.73;;;-1.60;82.20;;;;;;5075656;28;20048;-70
2021/01/21 08:05:38;;;;;;;41.78;19.23;;;-1.50;82.30;;;;;;5075467;28;20100;-69
2021/01/21 08:08:04;;;;;;;27.67;15.45;;;-1.50;82.40;;;;;;5056891;28;20028;-69
2021/01/21 08:10:35;;;;;;;36.10;16.58;;;-1.40;82.50;;;;;;5075246;28;20059;-69
2021/01/21 08:13:01;;;;;;;35.25;16.73;;;-1.40;82.50;;;;;;5057107;28;20048;-70
2021/01/21 08:15:29;;;;;;;34.90;15.73;;;-1.30;82.80;;;;;;5075563;28;20025;-70
2021/01/21 08:17:55;;;;;;;26.17;12.25;;;-1.20;82.70;;;;;;5074975;28;20078;-70
2021/01/21 08:20:23;;;;;;;31.88;15.35;;;-1.10;82.90;;;;;;5075083;28;20506;-70
2021/01/21 08:23:06;;;;;;;42.33;19.45;;;-1.00;82.80;;;;;;5074905;28;20051;-69
2021/01/21 08:25:42;;;;;;;32.35;17.80;;;-1.00;82.50;;;;;;5074788;28;20116;-70
2021/01/21 08:28:08;;;;;;;34.60;15.27;;;-0.90;82.30;;;;;;5074690;28;20375;-69
2021/01/21 08:30:35;;;;;;;32.25;14.63;;;-0.90;82.30;;;;;;5056638;28;20024;-70
2021/01/21 08:33:22;;;;;;;23.98;11.57;;;-0.90;82.30;;;;;;5074862;28;20039;-70
2021/01/21 08:35:54;;;;;;;40.83;17.33;;;-0.80;82.30;;;;;;5056444;28;20150;-70
2021/01/21 08:38:25;;;;;;;40.08;18.67;;;-0.70;82.30;;;;;;5075149;28;20058;-70
2021/01/21 08:40:54;;;;;;;30.23;12.18;;;-0.60;82.30;;;;;;5056849;28;20482;-70
2021/01/21 08:43:22;;;;;;;34.53;15.77;;;-0.50;82.40;;;;;;5074812;28;20032;-70
2021/01/21 08:45:49;;;;;;;29.67;12.70;;;-0.50;81.80;;;;;;5059081;28;21152;-70
2021/01/21 08:48:27;;;;;;;36.15;17.23;;;-0.40;81.80;;;;;;5094833;28;20455;-70
2021/01/21 08:50:53;;;;;;;30.17;11.77;;;-0.30;82.10;;;;;;5076530;28;20046;-70
2021/01/21 08:53:24;;;;;;;40.63;17.95;;;-0.20;81.80;;;;;;5094654;28;20016;-70
2021/01/21 08:55:56;;;;;;;27.92;13.43;;;-0.10;81.80;;;;;;5074729;28;20504;-73
2021/01/21 08:58:30;;;;;;;23.27;11.77;;;0.00;81.90;;;;;;5082915;28;20044;-71
2021/01/21 09:01:06;;;;;;;25.50;12.00;;;0.00;81.10;;;;;;5076095;28;20077;-71
2021/01/21 09:03:48;;;;;;;35.67;17.40;;;0.00;80.80;;;;;;5094241;28;20024;-70
2021/01/21 09:06:18;;;;;;;39.80;19.05;;;0.00;81.00;;;;;;5094207;28;20012;-70
2021/01/21 09:08:56;;;;;;;19.85;9.63;;;0.10;81.60;;;;;;5076218;28;20371;-70
2021/01/21 09:11:33;;;;;;;36.65;15.45;;;0.20;81.40;;;;;;5094246;28;20351;-72
2021/01/21 09:14:03;;;;;;;41.28;18.13;;;0.20;81.10;;;;;;5076112;28;20047;-70
2021/01/21 09:16:52;;;;;;;33.25;15.27;;;0.30;81.40;;;;;;5076038;28;20027;-70
2021/01/21 09:19:27;;;;;;;24.85;11.55;;;0.30;81.20;;;;;;5094577;28;20058;-70
2021/01/21 09:22:07;;;;;;;86.50;36.05;;;0.40;81.30;;;;;;5093514;28;20043;-71
2021/01/21 09:24:34;;;;;;;42.83;19.17;;;0.50;81.50;;;;;;5075984;28;20032;-70
2021/01/21 09:27:16;;;;;;;45.78;19.17;;;0.70;82.00;;;;;;5075636;28;20106;-70
2021/01/21 09:29:46;;;;;;;30.33;14.32;;;0.80;81.30;;;;;;5075573;28;20035;-69
2021/01/21 09:32:12;;;;;;;39.08;19.08;;;0.90;80.90;;;;;;5093497;28;20100;-71
2021/01/21 09:34:38;;;;;;;21.02;11.63;;;0.90;80.70;;;;;;5094098;28;20474;-70
2021/01/21 09:37:04;;;;;;;25.90;13.63;;;0.90;80.50;;;;;;5093883;28;20028;-70
2021/01/21 09:39:29;;;;;;;34.50;17.83;;;0.90;80.20;;;;;;5093867;28;20027;-70
2021/01/21 09:41:55;;;;;;;27.77;15.70;;;0.90;80.70;;;;;;5094117;28;20035;-70
2021/01/21 09:44:21;;;;;;;28.35;12.25;;;0.90;80.70;;;;;;5093505;28;20467;-70
2021/01/21 09:46:47;;;;;;;29.95;14.55;;;0.80;80.80;;;;;;5093698;28;20052;-70
2021/01/21 09:49:12;;;;;;;19.65;10.30;;;0.90;80.80;;;;;;5093603;28;20036;-71
2021/01/21 09:51:38;;;;;;;27.95;14.38;;;0.90;80.90;;;;;;5075886;28;20501;-70
2021/01/21 09:54:05;;;;;;;23.42;11.93;;;0.90;80.60;;;;;;5093324;28;20112;-70
2021/01/21 09:56:31;;;;;;;27.95;13.13;;;0.90;81.20;;;;;;5093924;28;20081;-70
2021/01/21 09:58:56;;;;;;;33.17;16.90;;;1.00;81.60;;;;;;5093417;28;20028;-70
2021/01/21 10:01:22;;;;;;;35.78;15.95;;;1.00;80.90;;;;;;5093463;28;20063;-70
2021/01/21 10:03:47;;;;;;;26.85;11.60;;;1.10;81.20;;;;;;5093441;28;20424;-71
2021/01/21 10:06:13;;;;;;;28.35;12.77;;;1.20;80.90;;;;;;5093204;28;20024;-71
2021/01/21 10:08:39;;;;;;;32.35;16.77;;;1.20;80.30;;;;;;5093603;28;20436;-71
2021/01/21 10:11:05;;;;;;;34.60;15.90;;;1.20;80.70;;;;;;5093056;28;20020;-71
2021/01/21 10:13:30;;;;;;;43.33;21.60;;;1.20;80.70;;;;;;5074322;28;20390;-71
2021/01/21 10:15:56;;;;;;;48.75;22.80;;;1.40;80.80;;;;;;5074720;28;20091;-71
2021/01/21 10:18:22;;;;;;;56.50;21.35;;;1.40;80.60;;;;;;5075168;28;20020;-71
2021/01/21 10:20:47;;;;;;;56.92;23.70;;;1.40;79.80;;;;;;5093796;28;20095;-70
2021/01/21 10:23:13;;;;;;;49.92;21.33;;;1.30;79.30;;;;;;5092932;28;20076;-70
2021/01/21 10:25:39;;;;;;;34.03;16.85;;;1.20;79.20;;;;;;5092767;28;20038;-70
2021/01/21 10:28:04;;;;;;;76.47;25.55;;;1.10;79.40;;;;;;5074800;28;20031;-70
2021/01/21 10:30:30;;;;;;;54.83;20.35;;;1.10;79.50;;;;;;5092603;28;20470;-70
2021/01/21 10:32:56;;;;;;;58.92;23.30;;;1.10;79.70;;;;;;5093128;28;20028;-70
2021/01/21 10:35:21;;;;;;;39.38;18.02;;;1.00;79.60;;;;;;5093098;28;20055;-70
2021/01/21 10:37:47;;;;;;;50.88;22.23;;;0.90;79.70;;;;;;5093495;28;20458;-70
2021/01/21 10:40:13;;;;;;;35.92;16.67;;;0.90;79.90;;;;;;5092835;28;20103;-71
2021/01/21 10:42:39;;;;;;;45.67;19.48;;;0.80;80.10;;;;;;5074684;28;20077;-71
2021/01/21 10:45:07;;;;;;;44.50;22.17;;;0.80;80.20;;;;;;5092872;28;20028;-71
2021/01/21 10:47:32;;;;;;;34.63;16.23;;;0.80;80.50;;;;;;5093026;28;20040;-71
2021/01/21 10:49:58;;;;;;;27.30;14.18;;;0.80;80.80;;;;;;5092578;28;20028;-71
2021/01/21 10:52:23;;;;;;;34.20;15.45;;;0.80;80.80;;;;;;5074601;28;20024;-71
2021/01/21 10:54:49;;;;;;;48.95;22.98;;;0.70;80.50;;;;;;5093136;28;20496;-71
2021/01/21 10:57:17;;;;;;;47.80;23.90;;;0.80;81.20;;;;;;5092768;28;20125;-70
2021/01/21 10:59:43;;;;;;;50.28;23.35;;;0.90;81.40;;;;;;5074391;28;20079;-70
2021/01/21 11:02:08;;;;;;;29.15;14.93;;;1.00;81.30;;;;;;5092510;28;20458;-70
2021/01/21 11:04:34;;;;;;;49.30;23.02;;;1.10;81.40;;;;;;5092702;28;20020;-70
2021/01/21 11:07:00;;;;;;;51.20;21.35;;;1.20;80.90;;;;;;5074669;28;20491;-71
2021/01/21 11:09:47;;;;;;;100.13;42.67;;;1.20;80.80;;;;;;5092260;28;20412;-71
2021/01/21 11:12:21;;;;;;;34.83;15.55;;;1.30;80.60;;;;;;5092051;28;20043;-70
2021/01/21 11:14:53;;;;;;;40.85;18.75;;;1.50;81.40;;;;;;5074461;28;20029;-70
2021/01/21 11:17:22;;;;;;;40.97;20.08;;;1.70;81.00;;;;;;5092957;28;20161;-71
2021/01/21 11:19:49;;;;;;;35.63;18.10;;;2.00;81.20;;;;;;5074183;28;20024;-70
2021/01/21 11:22:15;;;;;;;27.65;13.13;;;2.30;79.50;;;;;;5074539;28;20097;-70
2021/01/21 11:24:44;;;;;;;30.80;13.73;;;2.50;79.70;;;;;;5074804;28;20043;-71
2021/01/21 11:27:10;;;;;;;31.33;14.05;;;2.80;78.10;;;;;;5078123;28;20367;-71
2021/01/21 11:29:36;;;;;;;32.63;16.05;;;3.00;77.30;;;;;;5096388;28;20062;-71
2021/01/21 11:32:05;;;;;;;24.25;11.13;;;3.00;76.30;;;;;;5077768;28;20085;-71
2021/01/21 11:34:31;;;;;;;36.78;16.20;;;3.20;76.50;;;;;;5096271;28;20020;-71
2021/01/21 11:36:56;;;;;;;38.70;19.15;;;3.40;75.50;;;;;;5096159;28;20051;-71
2021/01/21 11:39:31;;;;;;;38.25;17.88;;;3.60;75.10;;;;;;5096186;28;20027;-71
2021/01/21 11:41:57;;;;;;;29.38;10.98;;;3.80;73.70;;;;;;5077891;28;20387;-70
2021/01/21 11:44:22;;;;;;;28.10;13.07;;;4.00;74.40;;;;;;5096347;28;20397;-70
2021/01/21 11:46:48;;;;;;;24.45;12.32;;;4.20;73.30;;;;;;5077448;28;20052;-71
2021/01/21 11:49:14;;;;;;;33.85;16.90;;;4.40;72.60;;;;;;5095399;28;20485;-70
2021/01/21 11:51:40;;;;;;;29.75;14.52;;;4.70;73.00;;;;;;5095641;28;20116;-70
2021/01/21 11:54:06;;;;;;;24.10;10.35;;;5.40;72.20;;;;;;5077162;28;20039;-71
2021/01/21 11:56:32;;;;;;;24.15;11.52;;;5.80;69.30;;;;;;5095985;28;20017;-71
2021/01/21 11:58:57;;;;;;;27.85;13.82;;;6.20;68.60;;;;;;5095590;28;20462;-71
2021/01/21 12:01:23;;;;;;;31.95;15.82;;;6.50;67.00;;;;;;5095558;28;20035;-71
2021/01/21 12:03:49;;;;;;;21.42;10.95;;;6.60;66.20;;;;;;5077602;28;20032;-74
2021/01/21 12:06:15;;;;;;;24.20;13.05;;;6.50;63.70;;;;;;5077173;28;20114;-71
2021/01/21 12:08:41;;;;;;;17.88;8.75;;;6.10;63.60;;;;;;5077730;28;20032;-72
2021/01/21 12:11:07;;;;;;;25.08;13.30;;;6.00;64.60;;;;;;5095497;28;20056;-72
2021/01/21 12:13:32;;;;;;;23.90;12.45;;;5.80;64.20;;;;;;5095709;28;20078;-71
2021/01/21 12:15:59;;;;;;;26.42;14.45;;;5.60;64.10;;;;;;5095607;28;20050;-71
2021/01/21 12:18:28;;;;;;;18.13;9.20;;;5.10;63.40;;;;;;5077247;28;20039;-72
2021/01/21 12:20:54;;;;;;;23.30;12.02;;;4.50;63.70;;;;;;5095313;28;20063;-70
2021/01/21 12:23:20;;;;;;;26.52;14.45;;;3.80;64.70;;;;;;5077178;28;20128;-72
2021/01/21 12:25:48;;;;;;;18.00;8.57;;;3.20;66.30;;;;;;5077121;28;20031;-71
2021/01/21 12:28:14;;;;;;;18.25;10.07;;;2.70;67.70;;;;;;5095287;28;20212;-71
2021/01/21 12:30:40;;;;;;;20.98;9.82;;;2.30;69.20;;;;;;5094846;28;20039;-71
2021/01/21 12:33:08;;;;;;;26.05;13.02;;;1.90;70.40;;;;;;5077015;28;20024;-71
2021/01/21 12:35:34;;;;;;;27.98;12.93;;;1.70;71.50;;;;;;5076710;28;20485;-71
2021/01/21 12:38:00;;;;;;;30.95;15.18;;;1.50;72.60;;;;;;5094022;28;20020;-71